Time;durP1;ratioP1;P1;durP2;ratioP2;P2;SDS_P1;SDS_P2;PMS_P1;PMS_P2;Temp;Humidity;BMP_temperature;BMP_pressure;BME280_temperature;BME280_humidity;BME280_pressure;Samples;Min_cycle;Max_cycle;Signal;HPM_P1;HPM_P2
2022/07/27 00:02:20;;;;;;;;;;;14.50;99.90;;;;;;5148212;27;19943;-84
2022/07/27 00:04:45;;;;;;;;;;;14.50;99.90;;;;;;5127500;27;19923;-85
2022/07/27 00:07:11;;;;;;;;;;;14.50;99.90;;;;;;5128012;27;19923;-84
2022/07/27 00:09:36;;;;;;;;;;;14.40;99.90;;;;;;5111997;27;20021;-84
2022/07/27 00:12:02;;;;;;;;;;;14.40;99.90;;;;;;5128780;27;19927;-84
2022/07/27 00:14:28;;;;;;;;;;;14.40;99.90;;;;;;5119506;27;20025;-84
2022/07/27 00:16:53;;;;;;;;;;;14.40;99.90;;;;;;5117857;27;19923;-84
2022/07/27 00:19:19;;;;;;;;;;;14.40;99.90;;;;;;5146012;27;19923;-84
2022/07/27 00:21:44;;;;;;;;;;;14.40;99.90;;;;;;5131533;27;19966;-84
2022/07/27 00:24:10;;;;;;;;;;;14.50;99.90;;;;;;5111472;27;19927;-84
2022/07/27 00:26:36;;;;;;;;;;;14.50;99.90;;;;;;5136919;27;20369;-83
2022/07/27 00:29:01;;;;;;;;;;;14.60;99.90;;;;;;5153337;27;19922;-84
2022/07/27 00:31:27;;;;;;;;;;;14.60;99.90;;;;;;5157176;27;19931;-83
2022/07/27 00:33:53;;;;;;;;;;;14.60;99.90;;;;;;5158423;27;19923;-84
2022/07/27 00:36:18;;;;;;;;;;;14.60;99.90;;;;;;5143084;27;19922;-84
2022/07/27 00:38:44;;;;;;;;;;;14.60;99.90;;;;;;5153421;27;19923;-84
2022/07/27 00:41:10;;;;;;;;;;;14.60;99.90;;;;;;5127582;27;20019;-84
2022/07/27 00:44:09;;;;;;;;;;;14.60;99.90;;;;;;5126517;27;19922;-84
2022/07/27 00:46:35;;;;;;;;;;;14.60;99.90;;;;;;5076104;27;19931;-85
2022/07/27 00:49:00;;;;;;;;;;;14.60;99.90;;;;;;5136431;27;20022;-84
2022/07/27 00:51:26;;;;;;;;;;;14.50;99.90;;;;;;5138858;27;19967;-84
2022/07/27 00:53:52;;;;;;;;;;;14.50;99.90;;;;;;5105901;27;19930;-84
2022/07/27 00:56:18;;;;;;;;;;;14.40;99.90;;;;;;5133450;27;20279;-84
2022/07/27 00:58:46;;;;;;;;;;;14.40;99.90;;;;;;5137646;27;19926;-84
2022/07/27 01:01:11;;;;;;;;;;;14.30;99.90;;;;;;5140106;27;19962;-84
2022/07/27 01:03:37;;;;;;;;;;;14.20;99.90;;;;;;5134396;27;19923;-84
2022/07/27 01:06:03;;;;;;;;;;;14.20;99.90;;;;;;5152950;27;19931;-83
2022/07/27 01:08:28;;;;;;;;;;;14.10;99.90;;;;;;5121451;27;19930;-84
2022/07/27 01:10:55;;;;;;;;;;;14.10;99.90;;;;;;5139364;27;19923;-84
2022/07/27 01:13:21;;;;;;;;;;;14.00;99.90;;;;;;5142521;27;19934;-84
2022/07/27 01:15:47;;;;;;;;;;;14.00;99.90;;;;;;5152192;27;19922;-84
2022/07/27 01:18:31;;;;;;;;;;;14.00;99.90;;;;;;5134912;27;20386;-84
2022/07/27 01:20:58;;;;;;;;;;;13.90;99.90;;;;;;5139452;27;20446;-84
2022/07/27 01:23:24;;;;;;;;;;;13.80;99.90;;;;;;5139775;27;20026;-84
2022/07/27 01:25:49;;;;;;;;;;;13.80;99.90;;;;;;5149055;27;19988;-84
2022/07/27 01:28:15;;;;;;;;;;;13.80;99.90;;;;;;5142585;27;20270;-84
2022/07/27 01:30:40;;;;;;;;;;;13.80;99.90;;;;;;5113932;27;19942;-83
2022/07/27 01:33:07;;;;;;;;;;;13.80;99.90;;;;;;5131071;27;20009;-84
2022/07/27 01:35:33;;;;;;;;;;;13.90;99.90;;;;;;5141950;27;19923;-84
2022/07/27 01:37:59;;;;;;;;;;;14.00;99.90;;;;;;5120659;27;20022;-84
2022/07/27 01:40:25;;;;;;;;;;;14.00;99.90;;;;;;5137752;27;20407;-84
2022/07/27 01:42:50;;;;;;;;;;;14.00;99.90;;;;;;5120845;27;19987;-84
2022/07/27 01:45:16;;;;;;;;;;;14.10;99.90;;;;;;5144525;27;19923;-84
2022/07/27 01:47:41;;;;;;;;;;;14.20;99.90;;;;;;5142359;27;19930;-85
2022/07/27 01:50:07;;;;;;;;;;;14.30;99.90;;;;;;5148559;27;19923;-84
2022/07/27 01:52:33;;;;;;;;;;;14.30;99.90;;;;;;5124877;27;20410;-84
2022/07/27 01:54:59;;;;;;;;;;;14.40;99.90;;;;;;5145572;27;20013;-84
2022/07/27 01:57:24;;;;;;;;;;;14.40;99.90;;;;;;5110333;27;19959;-85
2022/07/27 01:59:51;;;;;;;;;;;14.40;99.90;;;;;;5129691;27;19934;-84
2022/07/27 02:02:17;;;;;;;;;;;14.40;99.90;;;;;;5147055;27;19983;-85
2022/07/27 02:04:42;;;;;;;;;;;14.40;99.90;;;;;;5136402;27;20279;-84
2022/07/27 02:07:08;;;;;;;;;;;14.40;99.90;;;;;;5133153;27;19923;-85
2022/07/27 02:09:33;;;;;;;;;;;14.40;99.90;;;;;;5128999;27;20245;-84
2022/07/27 02:14:43;;;;;;;;;;;14.40;99.90;;;;;;5145462;27;19926;-84
2022/07/27 02:17:09;;;;;;;;;;;14.40;99.90;;;;;;5135848;27;19983;-84
2022/07/27 02:19:34;;;;;;;;;;;14.50;99.90;;;;;;5154939;27;19977;-84
2022/07/27 02:22:00;;;;;;;;;;;14.50;99.90;;;;;;5154812;27;21466;-85
2022/07/27 02:24:25;;;;;;;;;;;14.60;99.90;;;;;;5150213;27;20393;-84
2022/07/27 02:26:51;;;;;;;;;;;14.70;99.90;;;;;;5148126;27;19923;-84
2022/07/27 02:29:17;;;;;;;;;;;14.70;99.90;;;;;;5118886;27;20018;-85
2022/07/27 02:31:42;;;;;;;;;;;14.70;99.90;;;;;;5148145;27;19923;-84
2022/07/27 02:34:08;;;;;;;;;;;14.80;99.90;;;;;;5119889;27;20371;-84
2022/07/27 02:36:33;;;;;;;;;;;14.80;99.90;;;;;;5141742;27;20328;-84
2022/07/27 02:38:59;;;;;;;;;;;14.80;99.90;;;;;;5143546;27;20000;-84
2022/07/27 02:41:24;;;;;;;;;;;14.80;99.90;;;;;;5128797;27;19966;-85
2022/07/27 02:43:50;;;;;;;;;;;14.80;99.90;;;;;;5109356;27;19930;-84
2022/07/27 02:46:16;;;;;;;;;;;14.80;99.90;;;;;;5140419;27;20259;-84
2022/07/27 02:48:41;;;;;;;;;;;14.80;99.90;;;;;;5139903;27;19945;-84
2022/07/27 02:51:07;;;;;;;;;;;14.80;99.90;;;;;;5125640;27;19930;-84
2022/07/27 02:53:32;;;;;;;;;;;14.80;99.90;;;;;;5115373;27;19960;-85
2022/07/27 02:55:58;;;;;;;;;;;14.80;99.90;;;;;;5123650;27;19970;-84
2022/07/27 02:58:23;;;;;;;;;;;14.80;99.90;;;;;;5140212;27;20309;-85
2022/07/27 03:00:49;;;;;;;;;;;14.80;99.90;;;;;;5137830;27;19923;-84
2022/07/27 03:03:15;;;;;;;;;;;14.80;99.90;;;;;;5141689;27;20275;-84
2022/07/27 03:05:41;;;;;;;;;;;14.80;99.90;;;;;;5135987;27;19988;-85
2022/07/27 03:08:06;;;;;;;;;;;14.80;99.90;;;;;;5155185;27;19924;-84
2022/07/27 03:10:32;;;;;;;;;;;14.80;99.90;;;;;;5139766;27;19930;-85
2022/07/27 03:12:57;;;;;;;;;;;14.80;99.90;;;;;;5153471;27;19922;-85
2022/07/27 03:15:23;;;;;;;;;;;14.80;99.90;;;;;;5139174;27;19927;-84
2022/07/27 03:17:49;;;;;;;;;;;14.80;99.90;;;;;;5121985;27;19923;-85
2022/07/27 03:20:14;;;;;;;;;;;14.80;99.90;;;;;;5138469;27;19958;-84
2022/07/27 03:22:40;;;;;;;;;;;14.80;99.90;;;;;;5151570;27;20322;-83
2022/07/27 03:25:06;;;;;;;;;;;14.80;99.90;;;;;;5154478;27;19923;-83
2022/07/27 03:27:32;;;;;;;;;;;14.70;99.90;;;;;;5108546;27;19923;-83
2022/07/27 03:29:57;;;;;;;;;;;14.70;99.90;;;;;;5138518;27;20290;-83
2022/07/27 03:32:23;;;;;;;;;;;14.60;99.90;;;;;;5138126;27;19923;-84
2022/07/27 03:34:48;;;;;;;;;;;14.60;99.90;;;;;;5126128;27;19997;-83
2022/07/27 03:37:15;;;;;;;;;;;14.60;99.90;;;;;;5150412;27;20358;-83
2022/07/27 03:39:41;;;;;;;;;;;14.50;99.90;;;;;;5142651;27;20323;-83
2022/07/27 03:42:07;;;;;;;;;;;14.50;99.90;;;;;;5130670;27;19923;-83
2022/07/27 03:44:32;;;;;;;;;;;14.50;99.90;;;;;;5127950;27;19967;-82
2022/07/27 03:46:58;;;;;;;;;;;14.50;99.90;;;;;;5148104;27;19922;-83
2022/07/27 03:49:24;;;;;;;;;;;14.50;99.90;;;;;;5159488;27;19930;-86
2022/07/27 03:51:49;;;;;;;;;;;14.50;99.90;;;;;;5138843;27;19975;-83
2022/07/27 03:54:16;;;;;;;;;;;14.50;99.90;;;;;;5120041;27;19923;-83
2022/07/27 03:56:42;;;;;;;;;;;14.50;99.90;;;;;;5121302;27;19931;-83
2022/07/27 03:59:08;;;;;;;;;;;14.50;99.90;;;;;;5140296;27;19942;-83
2022/07/27 04:01:34;;;;;;;;;;;14.50;99.90;;;;;;5121729;27;19924;-83
2022/07/27 04:03:59;;;;;;;;;;;14.50;99.90;;;;;;5140390;27;20358;-83
2022/07/27 04:06:25;;;;;;;;;;;14.40;99.90;;;;;;5145183;27;19962;-83
2022/07/27 04:08:51;;;;;;;;;;;14.40;99.90;;;;;;5135831;27;19994;-83
2022/07/27 04:11:16;;;;;;;;;;;14.40;99.90;;;;;;5129656;27;19922;-83
2022/07/27 04:13:42;;;;;;;;;;;14.40;99.90;;;;;;5111297;27;19969;-84
2022/07/27 04:16:08;;;;;;;;;;;14.40;99.90;;;;;;5104517;27;19923;-83
2022/07/27 04:18:33;;;;;;;;;;;14.40;99.90;;;;;;5125716;27;19952;-83
2022/07/27 04:21:02;;;;;;;;;;;14.30;99.90;;;;;;5129725;27;19930;-84
2022/07/27 04:23:27;;;;;;;;;;;14.30;99.90;;;;;;5121383;27;20005;-83
2022/07/27 04:25:53;;;;;;;;;;;14.30;99.90;;;;;;5129518;27;20353;-84
2022/07/27 04:28:19;;;;;;;;;;;14.20;99.90;;;;;;5134105;27;20294;-83
2022/07/27 04:30:44;;;;;;;;;;;14.30;99.90;;;;;;5138099;27;19975;-83
2022/07/27 04:33:10;;;;;;;;;;;14.20;99.90;;;;;;5120850;27;20059;-83
2022/07/27 04:35:35;;;;;;;;;;;14.30;99.90;;;;;;5121103;27;19930;-84
2022/07/27 04:38:01;;;;;;;;;;;14.30;99.90;;;;;;5138501;27;19922;-83
2022/07/27 04:40:31;;;;;;;;;;;14.30;99.90;;;;;;5121665;27;19923;-83
2022/07/27 04:42:57;;;;;;;;;;;14.30;99.90;;;;;;5137553;27;19946;-83
2022/07/27 04:45:23;;;;;;;;;;;14.20;99.90;;;;;;5154122;27;19919;-84
2022/07/27 04:47:48;;;;;;;;;;;14.20;99.90;;;;;;5139070;27;19926;-83
2022/07/27 04:50:14;;;;;;;;;;;14.10;99.90;;;;;;5139839;27;19930;-83
2022/07/27 04:52:39;;;;;;;;;;;14.10;99.90;;;;;;5143133;27;19969;-84
2022/07/27 04:55:05;;;;;;;;;;;14.00;99.90;;;;;;5147872;27;19923;-84
2022/07/27 04:57:32;;;;;;;;;;;14.00;99.90;;;;;;5115081;27;19931;-83
2022/07/27 04:59:57;;;;;;;;;;;14.10;99.90;;;;;;5133068;27;19923;-83
2022/07/27 05:02:25;;;;;;;;;;;14.00;99.90;;;;;;5150133;27;19922;-84
2022/07/27 05:04:51;;;;;;;;;;;14.10;99.90;;;;;;5119186;27;19927;-84
2022/07/27 05:07:17;;;;;;;;;;;14.20;99.90;;;;;;5130835;27;19929;-83
2022/07/27 05:09:42;;;;;;;;;;;14.20;99.90;;;;;;5138787;27;19923;-83
2022/07/27 05:12:08;;;;;;;;;;;14.30;99.90;;;;;;5119923;27;20014;-84
2022/07/27 05:14:34;;;;;;;;;;;14.30;99.90;;;;;;5140539;27;19948;-83
2022/07/27 05:17:00;;;;;;;;;;;14.30;99.90;;;;;;5129369;27;20023;-84
2022/07/27 05:19:26;;;;;;;;;;;14.40;99.90;;;;;;5130106;27;20013;-84
2022/07/27 05:21:51;;;;;;;;;;;14.40;99.90;;;;;;5128111;27;20338;-84
2022/07/27 05:24:17;;;;;;;;;;;14.50;99.90;;;;;;5125162;27;19930;-84
2022/07/27 05:26:43;;;;;;;;;;;14.60;99.90;;;;;;5112425;27;19923;-84
2022/07/27 05:29:08;;;;;;;;;;;14.70;99.90;;;;;;5122893;27;19923;-84
2022/07/27 05:31:34;;;;;;;;;;;14.70;99.90;;;;;;5157998;27;20066;-83
2022/07/27 05:33:59;;;;;;;;;;;14.80;99.90;;;;;;5109717;27;19996;-78
2022/07/27 05:36:25;;;;;;;;;;;14.80;99.90;;;;;;5147171;27;19923;-81
2022/07/27 05:38:51;;;;;;;;;;;14.90;99.90;;;;;;5133533;27;19941;-78
2022/07/27 05:41:20;;;;;;;;;;;14.90;99.90;;;;;;5136634;27;19923;-78
2022/07/27 05:43:46;;;;;;;;;;;15.00;99.90;;;;;;5123763;27;19923;-79
2022/07/27 05:46:12;;;;;;;;;;;15.10;99.90;;;;;;5120212;27;19978;-79
2022/07/27 05:48:37;;;;;;;;;;;15.10;99.90;;;;;;5136953;27;20364;-84
2022/07/27 05:51:03;;;;;;;;;;;15.20;99.90;;;;;;5118857;27;19987;-79
2022/07/27 05:53:28;;;;;;;;;;;15.30;99.90;;;;;;5136458;27;20287;-81
2022/07/27 05:55:54;;;;;;;;;;;15.30;99.90;;;;;;5122958;27;19923;-82
2022/07/27 05:58:20;;;;;;;;;;;15.30;99.90;;;;;;5115156;27;19923;-85
2022/07/27 06:00:45;;;;;;;;;;;15.40;99.90;;;;;;5149229;27;19975;-83
2022/07/27 06:03:11;;;;;;;;;;;15.40;99.90;;;;;;5123244;27;19931;-85
2022/07/27 06:05:36;;;;;;;;;;;15.40;99.90;;;;;;5126709;27;20274;-85
2022/07/27 06:08:07;;;;;;;;;;;15.50;99.90;;;;;;5117889;27;19953;-84
2022/07/27 06:10:34;;;;;;;;;;;15.50;99.90;;;;;;5130787;27;19923;-79
2022/07/27 06:13:03;;;;;;;;;;;15.60;99.90;;;;;;5144285;27;19938;-82
2022/07/27 06:15:29;;;;;;;;;;;15.60;99.90;;;;;;5119396;27;20011;-83
2022/07/27 06:17:55;;;;;;;;;;;15.60;99.90;;;;;;5148369;27;20364;-81
2022/07/27 06:20:21;;;;;;;;;;;15.60;99.90;;;;;;5117035;27;19995;-81
2022/07/27 06:22:48;;;;;;;;;;;15.60;99.90;;;;;;5122415;27;20442;-80
2022/07/27 06:25:14;;;;;;;;;;;15.60;99.90;;;;;;5124515;27;19926;-75
2022/07/27 06:27:40;;;;;;;;;;;15.70;99.90;;;;;;5126869;27;19923;-87
2022/07/27 06:30:06;;;;;;;;;;;15.80;99.90;;;;;;5120922;27;19934;-82
2022/07/27 06:32:31;;;;;;;;;;;15.90;99.90;;;;;;5156216;27;19922;-79
2022/07/27 06:34:58;;;;;;;;;;;16.00;99.90;;;;;;5151584;27;19966;-77
2022/07/27 06:37:26;;;;;;;;;;;16.10;99.90;;;;;;5126779;27;20013;-79
2022/07/27 06:39:51;;;;;;;;;;;16.20;99.90;;;;;;5118984;27;20387;-78
2022/07/27 06:42:17;;;;;;;;;;;16.20;99.90;;;;;;5150844;27;19923;-79
2022/07/27 06:44:43;;;;;;;;;;;16.30;99.90;;;;;;5102713;27;19966;-79
2022/07/27 06:47:08;;;;;;;;;;;16.30;99.90;;;;;;5124374;27;19923;-78
2022/07/27 06:49:34;;;;;;;;;;;16.40;99.90;;;;;;5127086;27;19931;-79
2022/07/27 06:51:59;;;;;;;;;;;16.40;99.90;;;;;;5144251;27;19923;-80
2022/07/27 06:54:25;;;;;;;;;;;16.50;99.90;;;;;;5139550;27;19930;-80
2022/07/27 06:56:50;;;;;;;;;;;16.60;99.90;;;;;;5152878;27;20437;-81
2022/07/27 06:59:16;;;;;;;;;;;16.60;99.90;;;;;;5126148;27;19973;-83
2022/07/27 07:01:42;;;;;;;;;;;16.60;99.90;;;;;;5150271;27;19923;-79
2022/07/27 07:04:08;;;;;;;;;;;16.60;99.90;;;;;;5101959;27;19985;-79
2022/07/27 07:06:34;;;;;;;;;;;16.60;99.90;;;;;;5121886;27;19980;-79
2022/07/27 07:08:59;;;;;;;;;;;16.40;99.90;;;;;;5120051;27;19930;-79
2022/07/27 07:11:25;;;;;;;;;;;16.30;99.90;;;;;;5118595;27;20009;-80
2022/07/27 07:13:51;;;;;;;;;;;16.30;99.90;;;;;;5135694;27;19923;-80
2022/07/27 07:16:16;;;;;;;;;;;16.20;99.90;;;;;;5102523;27;20102;-80
2022/07/27 07:18:42;;;;;;;;;;;16.20;99.90;;;;;;5140086;27;19931;-79
2022/07/27 07:21:08;;;;;;;;;;;16.20;99.90;;;;;;5156661;27;19929;-80
2022/07/27 07:23:33;;;;;;;;;;;16.30;99.90;;;;;;5126114;27;19923;-79
2022/07/27 07:25:59;;;;;;;;;;;16.30;99.90;;;;;;5153866;27;20279;-80
2022/07/27 07:28:24;;;;;;;;;;;16.50;99.90;;;;;;5123645;27;19923;-79
2022/07/27 07:30:50;;;;;;;;;;;16.50;99.90;;;;;;5139597;27;19931;-79
2022/07/27 07:33:15;;;;;;;;;;;16.60;99.90;;;;;;5126181;27;19922;-80
2022/07/27 07:35:42;;;;;;;;;;;16.60;99.90;;;;;;5153597;27;19969;-79
2022/07/27 07:38:07;;;;;;;;;;;16.60;99.90;;;;;;5152143;27;19922;-80
2022/07/27 07:40:33;;;;;;;;;;;16.70;99.90;;;;;;5140003;27;19923;-80
2022/07/27 07:43:00;;;;;;;;;;;16.80;99.90;;;;;;5153921;27;20242;-79
2022/07/27 07:45:26;;;;;;;;;;;16.90;99.90;;;;;;5149246;27;19970;-80
2022/07/27 07:47:53;;;;;;;;;;;16.90;99.90;;;;;;5151284;27;20429;-80
2022/07/27 07:50:20;;;;;;;;;;;17.00;99.90;;;;;;5127861;27;19965;-78
2022/07/27 07:52:49;;;;;;;;;;;17.20;99.90;;;;;;5154985;27;19922;-79
2022/07/27 07:55:17;;;;;;;;;;;17.30;99.90;;;;;;5125449;27;19931;-79
2022/07/27 07:57:43;;;;;;;;;;;17.50;99.90;;;;;;5151488;27;19973;-79
2022/07/27 08:00:09;;;;;;;;;;;17.70;99.90;;;;;;5124199;27;19924;-88
2022/07/27 08:02:41;;;;;;;;;;;17.90;99.90;;;;;;5157542;27;19934;-78
2022/07/27 08:05:07;;;;;;;;;;;18.00;99.90;;;;;;5122009;27;19924;-79
2022/07/27 08:07:32;;;;;;;;;;;18.10;99.90;;;;;;5142212;27;19923;-81
2022/07/27 08:09:58;;;;;;;;;;;18.10;99.90;;;;;;5148355;27;20263;-87
2022/07/27 08:12:24;;;;;;;;;;;18.20;99.90;;;;;;5116384;27;19946;-86
2022/07/27 08:14:49;;;;;;;;;;;18.40;99.90;;;;;;5125258;27;20461;-89
2022/07/27 08:17:15;;;;;;;;;;;18.40;99.90;;;;;;5123800;27;19922;-86
2022/07/27 08:19:43;;;;;;;;;;;18.50;99.90;;;;;;5134656;27;20356;-82
2022/07/27 08:22:08;;;;;;;;;;;18.50;99.90;;;;;;5138418;27;20390;-78
2022/07/27 08:24:34;;;;;;;;;;;18.40;99.90;;;;;;5129603;27;20436;-78
2022/07/27 08:27:00;;;;;;;;;;;18.40;99.90;;;;;;5148575;27;20418;-80
2022/07/27 08:29:25;;;;;;;;;;;18.40;99.90;;;;;;5125961;27;19949;-79
2022/07/27 08:31:51;;;;;;;;;;;18.40;99.90;;;;;;5137754;27;19923;-79
2022/07/27 08:34:16;;;;;;;;;;;18.40;99.90;;;;;;5118769;27;19931;-80
2022/07/27 08:36:42;;;;;;;;;;;18.40;99.90;;;;;;5134294;27;19941;-82
2022/07/27 08:39:08;;;;;;;;;;;18.40;99.90;;;;;;5146060;27;19929;-81
2022/07/27 08:41:36;;;;;;;;;;;18.50;99.90;;;;;;5129771;27;20350;-81
2022/07/27 08:44:02;;;;;;;;;;;18.50;99.90;;;;;;5135517;27;19935;-81
2022/07/27 08:46:29;;;;;;;;;;;18.60;99.90;;;;;;5119094;27;20274;-82
2022/07/27 08:48:55;;;;;;;;;;;18.70;99.90;;;;;;5134246;27;20005;-82
2022/07/27 08:51:23;;;;;;;;;;;18.80;99.90;;;;;;5134334;27;20029;-80
2022/07/27 08:53:49;;;;;;;;;;;18.90;99.90;;;;;;5134958;27;19931;-81
2022/07/27 08:56:15;;;;;;;;;;;19.00;99.90;;;;;;5152311;27;19945;-81
2022/07/27 08:58:40;;;;;;;;;;;19.10;99.90;;;;;;5131573;27;20378;-82
2022/07/27 09:01:06;;;;;;;;;;;19.10;99.90;;;;;;5132192;27;19948;-80
2022/07/27 09:03:31;;;;;;;;;;;19.30;99.90;;;;;;5141046;27;19970;-76
2022/07/27 09:05:57;;;;;;;;;;;19.40;99.90;;;;;;5125958;27;19923;-76
2022/07/27 09:08:24;;;;;;;;;;;19.50;99.90;;;;;;5134083;27;19940;-76
2022/07/27 09:10:50;;;;;;;;;;;19.80;99.90;;;;;;5154817;27;19926;-76
2022/07/27 09:13:22;;;;;;;;;;;19.70;99.90;;;;;;5124898;27;19970;-75
2022/07/27 09:15:49;;;;;;;;;;;19.60;99.90;;;;;;5148560;27;19923;-83
2022/07/27 09:18:21;;;;;;;;;;;19.30;99.90;;;;;;5118546;27;19928;-83
2022/07/27 09:21:05;;;;;;;;;;;19.30;99.90;;;;;;5134819;27;19923;-84
2022/07/27 09:23:31;;;;;;;;;;;19.10;99.90;;;;;;5140995;27;20038;-87
2022/07/27 09:26:09;;;;;;;;;;;18.80;99.90;;;;;;5118350;27;20406;-88
2022/07/27 09:28:35;;;;;;;;;;;18.80;99.90;;;;;;5135763;27;20399;-87
2022/07/27 09:31:07;;;;;;;;;;;18.90;99.90;;;;;;5100924;27;20062;-88
2022/07/27 09:33:47;;;;;;;;;;;18.80;99.90;;;;;;5135071;27;19958;-88
2022/07/27 09:36:13;;;;;;;;;;;18.80;99.90;;;;;;5130453;27;19923;-87
2022/07/27 09:38:55;;;;;;;;;;;18.90;99.90;;;;;;5136597;27;19948;-87
2022/07/27 09:41:21;;;;;;;;;;;19.00;99.90;;;;;;5131467;27;19933;-88
2022/07/27 09:43:56;;;;;;;;;;;19.00;99.90;;;;;;5134192;27;19930;-85
2022/07/27 09:46:29;;;;;;;;;;;19.00;99.90;;;;;;5118546;27;19934;-84
2022/07/27 09:48:54;;;;;;;;;;;19.10;99.90;;;;;;5144449;27;19927;-89
2022/07/27 09:51:23;;;;;;;;;;;19.20;99.90;;;;;;5147390;27;20100;-84
2022/07/27 09:53:50;;;;;;;;;;;19.40;99.90;;;;;;5133345;27;19927;-87
2022/07/27 09:56:16;;;;;;;;;;;19.50;99.90;;;;;;5123327;27;19923;-82
2022/07/27 09:58:45;;;;;;;;;;;19.60;99.90;;;;;;5125407;27;20277;-80
2022/07/27 10:01:12;;;;;;;;;;;19.50;99.90;;;;;;5146704;27;20439;-82
2022/07/27 10:03:40;;;;;;;;;;;19.50;99.90;;;;;;5146604;27;19945;-81
2022/07/27 10:06:06;;;;;;;;;;;19.60;99.90;;;;;;5133697;27;19923;-81
2022/07/27 10:08:32;;;;;;;;;;;19.60;99.90;;;;;;5134462;27;19980;-81
2022/07/27 10:10:57;;;;;;;;;;;19.70;99.90;;;;;;5145287;27;20336;-85
2022/07/27 10:13:26;;;;;;;;;;;19.80;99.90;;;;;;5146017;27;19976;-85
2022/07/27 10:15:52;;;;;;;;;;;19.80;99.90;;;;;;5135797;27;19941;-85
2022/07/27 10:18:27;;;;;;;;;;;20.00;99.90;;;;;;5131115;27;19934;-84
2022/07/27 10:20:52;;;;;;;;;;;20.00;99.90;;;;;;5122366;27;20376;-86
2022/07/27 10:23:26;;;;;;;;;;;19.90;99.90;;;;;;5150660;27;19927;-86
2022/07/27 10:26:10;;;;;;;;;;;20.10;99.90;;;;;;5143912;27;19979;-87
2022/07/27 10:28:46;;;;;;;;;;;20.00;99.90;;;;;;5118922;27;19927;-89
2022/07/27 10:31:17;;;;;;;;;;;20.00;99.90;;;;;;5127341;27;19947;-86
2022/07/27 10:33:46;;;;;;;;;;;20.20;99.90;;;;;;5131010;27;20386;-88
2022/07/27 10:36:16;;;;;;;;;;;20.30;99.90;;;;;;5132995;27;19982;-77
2022/07/27 10:38:50;;;;;;;;;;;20.00;99.90;;;;;;5139297;27;20427;-75
2022/07/27 10:41:19;;;;;;;;;;;20.10;99.90;;;;;;5148100;27;19975;-82
2022/07/27 10:43:45;;;;;;;;;;;20.20;99.90;;;;;;5132631;27;19931;-84
2022/07/27 10:46:17;;;;;;;;;;;20.20;99.90;;;;;;5124214;27;20305;-80
2022/07/27 10:48:43;;;;;;;;;;;20.40;99.90;;;;;;5138357;27;19923;-82
2022/07/27 10:51:09;;;;;;;;;;;20.60;99.90;;;;;;5141013;27;20387;-82
2022/07/27 10:53:36;;;;;;;;;;;20.70;99.90;;;;;;5140802;27;20378;-81
2022/07/27 10:56:02;;;;;;;;;;;21.00;99.90;;;;;;5144388;27;19933;-84
2022/07/27 10:58:28;;;;;;;;;;;21.30;99.90;;;;;;5152001;27;19927;-81
2022/07/27 11:00:53;;;;;;;;;;;21.60;99.90;;;;;;5150936;27;19934;-82
2022/07/27 11:03:23;;;;;;;;;;;21.80;99.90;;;;;;5144243;27;19931;-82
2022/07/27 11:06:09;;;;;;;;;;;21.70;99.90;;;;;;5160021;27;19930;-80
2022/07/27 11:08:34;;;;;;;;;;;21.50;99.90;;;;;;5128613;27;19930;-79
2022/07/27 11:11:00;;;;;;;;;;;21.30;99.90;;;;;;5159809;27;19991;-80
2022/07/27 11:13:27;;;;;;;;;;;21.00;99.90;;;;;;5163663;27;19923;-90
2022/07/27 11:15:53;;;;;;;;;;;20.70;99.90;;;;;;5135965;27;19930;-79
2022/07/27 11:18:25;;;;;;;;;;;20.00;99.90;;;;;;5147283;27;20018;-84
2022/07/27 11:20:50;;;;;;;;;;;19.60;99.90;;;;;;5133477;27;19927;-84
2022/07/27 11:23:20;;;;;;;;;;;19.10;99.90;;;;;;5127207;27;19934;-83
2022/07/27 11:25:59;;;;;;;;;;;18.80;99.90;;;;;;5121363;27;19927;-84
2022/07/27 11:28:31;;;;;;;;;;;18.50;99.90;;;;;;5130769;27;19927;-83
2022/07/27 11:30:57;;;;;;;;;;;18.40;99.90;;;;;;5138550;27;19970;-83
2022/07/27 11:33:23;;;;;;;;;;;18.40;99.90;;;;;;5151372;27;19923;-82
2022/07/27 11:36:00;;;;;;;;;;;18.50;99.90;;;;;;5111986;27;19927;-83
2022/07/27 11:38:25;;;;;;;;;;;18.70;99.90;;;;;;5130158;27;19949;-83
2022/07/27 11:40:52;;;;;;;;;;;18.90;99.90;;;;;;5138621;27;20469;-83
2022/07/27 11:43:50;;;;;;;;;;;19.20;99.90;;;;;;5152116;27;19930;-83
2022/07/27 11:46:21;;;;;;;;;;;19.50;99.90;;;;;;5066385;27;19934;-83
2022/07/27 11:48:57;;;;;;;;;;;19.80;99.90;;;;;;5140297;27;20002;-85
2022/07/27 11:51:23;;;;;;;;;;;20.10;99.90;;;;;;5140507;27;19930;-84
2022/07/27 11:53:54;;;;;;;;;;;20.10;99.90;;;;;;5122804;27;19933;-83
2022/07/27 11:56:20;;;;;;;;;;;20.20;99.90;;;;;;5121772;27;19927;-83
2022/07/27 11:59:03;;;;;;;;;;;20.50;99.90;;;;;;5155208;27;19945;-84
2022/07/27 12:01:42;;;;;;;;;;;20.60;99.90;;;;;;5119679;27;19927;-84
2022/07/27 12:04:14;;;;;;;;;;;20.70;99.90;;;;;;5136914;27;19927;-84
2022/07/27 12:06:41;;;;;;;;;;;20.90;99.90;;;;;;5137434;27;19927;-84
2022/07/27 12:09:08;;;;;;;;;;;21.20;99.90;;;;;;5150551;27;20587;-83
2022/07/27 12:11:44;;;;;;;;;;;21.40;99.90;;;;;;5137172;27;19931;-84
2022/07/27 12:14:12;;;;;;;;;;;21.90;99.90;;;;;;5155415;27;19973;-79
2022/07/27 12:16:39;;;;;;;;;;;22.10;99.90;;;;;;5121574;27;19923;-82
2022/07/27 12:19:05;;;;;;;;;;;21.90;99.90;;;;;;5128318;27;19975;-84
2022/07/27 12:21:31;;;;;;;;;;;21.60;99.90;;;;;;5137692;27;20062;-84
2022/07/27 12:23:57;;;;;;;;;;;21.70;99.90;;;;;;5139539;27;20003;-82
2022/07/27 12:26:24;;;;;;;;;;;21.60;99.90;;;;;;5150054;27;19922;-86
2022/07/27 12:29:09;;;;;;;;;;;21.90;99.90;;;;;;5155714;27;20391;-81
2022/07/27 12:31:36;;;;;;;;;;;22.30;99.90;;;;;;5122154;27;19927;-81
2022/07/27 12:34:05;;;;;;;;;;;22.40;99.90;;;;;;5121612;27;20010;-82
2022/07/27 12:36:31;;;;;;;;;;;22.80;99.90;;;;;;5139748;27;20399;-82
2022/07/27 12:39:00;;;;;;;;;;;23.20;99.90;;;;;;5110608;27;19973;-82
2022/07/27 12:41:31;;;;;;;;;;;23.70;99.20;;;;;;5134165;27;20000;-88
2022/07/27 12:44:04;;;;;;;;;;;23.50;97.50;;;;;;5133926;27;19919;-78
2022/07/27 12:46:29;;;;;;;;;;;24.30;98.10;;;;;;5137291;27;19934;-81
2022/07/27 12:48:55;;;;;;;;;;;24.50;97.20;;;;;;5126898;27;19926;-81
2022/07/27 12:51:22;;;;;;;;;;;24.50;96.30;;;;;;5136017;27;19927;-80
2022/07/27 12:53:48;;;;;;;;;;;24.10;96.40;;;;;;5139327;27;20371;-81
2022/07/27 12:56:13;;;;;;;;;;;24.10;96.70;;;;;;5142395;27;19948;-81
2022/07/27 12:58:55;;;;;;;;;;;24.00;96.40;;;;;;5145117;27;19930;-79
2022/07/27 13:01:21;;;;;;;;;;;23.80;95.40;;;;;;5141411;27;19927;-83
2022/07/27 13:03:46;;;;;;;;;;;23.90;96.70;;;;;;5153632;27;20050;-79
2022/07/27 13:06:12;;;;;;;;;;;23.80;96.40;;;;;;5130051;27;19923;-81
2022/07/27 13:08:38;;;;;;;;;;;23.50;96.10;;;;;;5147384;27;19923;-80
2022/07/27 13:11:04;;;;;;;;;;;23.20;96.60;;;;;;5147833;27;19927;-81
2022/07/27 13:13:29;;;;;;;;;;;23.20;96.80;;;;;;5134204;27;19970;-81
2022/07/27 13:15:55;;;;;;;;;;;23.20;97.40;;;;;;5155012;27;19927;-81
2022/07/27 13:18:20;;;;;;;;;;;23.00;97.60;;;;;;5162378;27;20023;-80
2022/07/27 13:20:46;;;;;;;;;;;23.00;97.40;;;;;;5118589;27;19927;-80
2022/07/27 13:23:12;;;;;;;;;;;23.00;97.90;;;;;;5134691;27;19923;-80
2022/07/27 13:25:37;;;;;;;;;;;22.80;97.70;;;;;;5134781;27;19927;-79
2022/07/27 13:28:03;;;;;;;;;;;22.60;98.30;;;;;;5144478;27;19930;-82
2022/07/27 13:30:29;;;;;;;;;;;22.30;98.30;;;;;;5173999;27;20472;-80
2022/07/27 13:32:54;;;;;;;;;;;22.00;99.30;;;;;;5148720;27;20045;-79
2022/07/27 13:35:20;;;;;;;;;;;21.90;99.40;;;;;;5151838;27;20247;-88
2022/07/27 13:37:46;;;;;;;;;;;21.70;99.80;;;;;;5146190;27;20365;-79
2022/07/27 13:40:12;;;;;;;;;;;21.80;99.90;;;;;;5136253;27;19979;-78
2022/07/27 13:42:37;;;;;;;;;;;21.80;99.80;;;;;;5131979;27;19933;-81
2022/07/27 13:45:04;;;;;;;;;;;21.80;99.90;;;;;;5107921;27;19927;-82
2022/07/27 13:47:29;;;;;;;;;;;21.90;99.90;;;;;;5131178;27;20049;-83
2022/07/27 13:49:55;;;;;;;;;;;22.00;99.90;;;;;;5128747;27;20014;-81
2022/07/27 13:52:21;;;;;;;;;;;22.40;99.90;;;;;;5138878;27;20037;-82
2022/07/27 13:54:47;;;;;;;;;;;22.60;99.80;;;;;;5153777;27;19918;-80
2022/07/27 13:57:13;;;;;;;;;;;22.60;99.20;;;;;;5124672;27;19933;-78
2022/07/27 13:59:38;;;;;;;;;;;22.30;99.00;;;;;;5138410;27;19994;-80
2022/07/27 14:02:04;;;;;;;;;;;22.20;98.90;;;;;;5133698;27;19927;-80
2022/07/27 14:04:30;;;;;;;;;;;22.30;99.00;;;;;;5131241;27;19927;-81
2022/07/27 14:06:56;;;;;;;;;;;22.60;99.30;;;;;;5125441;27;20281;-80
2022/07/27 14:10:30;;;;;;;;;;;23.30;98.60;;;;;;5134052;27;19933;-80
2022/07/27 14:12:07;;;;;;;;;;;24.20;97.60;;;;;;5152817;27;19926;-81
2022/07/27 14:14:33;;;;;;;;;;;25.00;96.50;;;;;;5131411;27;20439;-83
2022/07/27 14:16:58;;;;;;;;;;;25.80;96.30;;;;;;5138893;27;19927;-82
2022/07/27 14:19:24;;;;;;;;;;;25.50;94.50;;;;;;5126409;27;19958;-80